Time;durP1;ratioP1;P1;durP2;ratioP2;P2;SDS_P1;SDS_P2;PMS_P1;PMS_P2;Temp;Humidity;BMP_temperature;BMP_pressure;BME280_temperature;BME280_humidity;BME280_pressure;Samples;Min_cycle;Max_cycle;Signal;HPM_P1;HPM_P2
2022/04/04 00:00:55;;;;;;;2.05;0.80;;;1.50;99.90;;;;;;4992727;28;20035;-76
2022/04/04 00:03:21;;;;;;;1.42;0.60;;;1.50;99.90;;;;;;4992381;28;20081;-77
2022/04/04 00:05:48;;;;;;;0.80;0.70;;;1.50;99.90;;;;;;4993074;28;20063;-77
2022/04/04 00:08:14;;;;;;;0.93;0.70;;;1.60;99.90;;;;;;4992621;28;20061;-77
2022/04/04 00:10:40;;;;;;;1.75;0.63;;;1.50;99.90;;;;;;4992499;28;20049;-77
2022/04/04 00:13:06;;;;;;;3.03;0.77;;;1.60;99.90;;;;;;4992499;28;20037;-79
2022/04/04 00:15:32;;;;;;;0.80;0.60;;;1.50;99.90;;;;;;4992253;28;20023;-79
2022/04/04 00:18:04;;;;;;;1.75;1.05;;;1.50;99.90;;;;;;4992670;28;20046;-79
2022/04/04 00:20:30;;;;;;;0.75;0.75;;;1.40;99.90;;;;;;4992358;28;20037;-79
2022/04/04 00:22:55;;;;;;;2.42;0.90;;;1.40;99.90;;;;;;4992231;28;20409;-79
2022/04/04 00:25:21;;;;;;;1.17;0.70;;;1.40;99.90;;;;;;4992505;28;20022;-79
2022/04/04 00:27:48;;;;;;;2.38;0.73;;;1.30;99.90;;;;;;4992280;28;20549;-78
2022/04/04 00:30:14;;;;;;;0.80;0.80;;;1.20;99.90;;;;;;4992387;28;20378;-78
2022/04/04 00:32:40;;;;;;;1.63;0.77;;;1.20;99.90;;;;;;4992171;28;20030;-78
2022/04/04 00:35:05;;;;;;;1.08;0.73;;;1.20;99.90;;;;;;4992414;28;20027;-78
2022/04/04 00:37:33;;;;;;;2.05;0.60;;;1.30;99.90;;;;;;4992068;28;20031;-78
2022/04/04 00:39:59;;;;;;;10.85;0.95;;;1.30;99.90;;;;;;4992386;28;20066;-78
2022/04/04 00:42:25;;;;;;;0.98;0.70;;;1.20;99.90;;;;;;4990826;28;20058;-79
2022/04/04 00:44:51;;;;;;;1.65;0.63;;;1.10;99.90;;;;;;4992655;28;20022;-78
2022/04/04 00:47:17;;;;;;;3.08;1.10;;;1.10;99.90;;;;;;4992250;28;20368;-78
2022/04/04 00:49:43;;;;;;;2.42;0.70;;;1.00;99.90;;;;;;4992490;28;20050;-78
2022/04/04 00:52:09;;;;;;;2.13;0.77;;;0.90;99.90;;;;;;4992338;28;20050;-78
2022/04/04 00:54:34;;;;;;;1.35;0.70;;;0.80;99.90;;;;;;4995607;28;20026;-79
2022/04/04 00:57:03;;;;;;;1.02;0.80;;;0.80;99.90;;;;;;4996078;28;20034;-79
2022/04/04 00:59:31;;;;;;;2.08;0.93;;;0.70;99.90;;;;;;4995602;28;20375;-73
2022/04/04 01:01:57;;;;;;;3.53;0.85;;;0.70;99.90;;;;;;4994402;28;20038;-73
2022/04/04 01:04:22;;;;;;;2.65;1.15;;;0.70;99.90;;;;;;4995356;28;20033;-72
2022/04/04 01:06:48;;;;;;;1.75;0.90;;;0.60;99.90;;;;;;4995634;28;20129;-73
2022/04/04 01:09:14;;;;;;;1.98;0.90;;;0.60;99.90;;;;;;4995517;28;20103;-73
2022/04/04 01:12:12;;;;;;;3.83;0.77;;;0.70;99.90;;;;;;4995435;28;20031;-73
2022/04/04 01:14:41;;;;;;;1.27;0.80;;;0.70;99.90;;;;;;4995582;28;20018;-73
2022/04/04 01:17:08;;;;;;;3.08;1.00;;;0.70;99.90;;;;;;4995689;28;20427;-72
2022/04/04 01:19:35;;;;;;;2.47;1.20;;;0.70;99.90;;;;;;4995555;28;20608;-73
2022/04/04 01:22:07;;;;;;;2.00;1.20;;;0.70;99.90;;;;;;4995227;28;20454;-73
2022/04/04 01:24:33;;;;;;;2.40;1.00;;;0.60;99.90;;;;;;4995152;28;20026;-73
2022/04/04 01:26:59;;;;;;;7.60;3.35;;;0.50;99.90;;;;;;4995543;28;20053;-73
2022/04/04 01:29:24;;;;;;;2.03;1.38;;;0.40;99.90;;;;;;4995011;28;20069;-72
2022/04/04 01:31:51;;;;;;;3.17;1.20;;;0.40;99.90;;;;;;4995370;28;20030;-72
2022/04/04 01:34:18;;;;;;;4.55;1.48;;;0.40;99.90;;;;;;4995061;28;20019;-73
2022/04/04 01:36:44;;;;;;;2.33;1.33;;;0.40;99.90;;;;;;4994958;28;20031;-72
2022/04/04 01:39:10;;;;;;;4.45;1.40;;;0.40;99.90;;;;;;4994815;28;20043;-72
2022/04/04 01:41:36;;;;;;;7.35;1.58;;;0.40;99.90;;;;;;4994762;28;20572;-72
2022/04/04 01:44:02;;;;;;;5.40;1.42;;;0.40;99.90;;;;;;4995179;28;20018;-72
2022/04/04 01:46:28;;;;;;;3.03;1.20;;;0.50;99.90;;;;;;4994816;28;20037;-72
2022/04/04 01:49:05;;;;;;;2.72;1.50;;;0.50;99.90;;;;;;4994884;28;20022;-72
2022/04/04 01:51:32;;;;;;;4.05;1.63;;;0.50;99.90;;;;;;4994927;28;20026;-72
2022/04/04 01:53:58;;;;;;;2.58;1.30;;;0.60;99.90;;;;;;4994735;28;20041;-72
2022/04/04 01:56:24;;;;;;;3.42;1.33;;;0.50;99.90;;;;;;4994763;28;20025;-72
2022/04/04 01:58:50;;;;;;;1.05;0.95;;;0.40;99.90;;;;;;4994680;28;20084;-72
2022/04/04 02:01:22;;;;;;;4.07;1.30;;;0.50;99.90;;;;;;4994717;28;20035;-74
2022/04/04 02:03:50;;;;;;;1.13;1.02;;;0.50;99.90;;;;;;4994663;28;20034;-73
2022/04/04 02:06:18;;;;;;;4.00;1.33;;;0.40;99.90;;;;;;4994078;28;20027;-73
2022/04/04 02:08:44;;;;;;;3.25;1.50;;;0.30;99.90;;;;;;4994770;28;20030;-73
2022/04/04 02:11:10;;;;;;;5.38;1.45;;;0.30;99.90;;;;;;4994673;28;20125;-72
2022/04/04 02:13:37;;;;;;;5.40;2.15;;;0.20;99.90;;;;;;4994691;28;20038;-73
2022/04/04 02:16:04;;;;;;;3.45;1.40;;;0.20;99.90;;;;;;4994670;28;20033;-73
2022/04/04 02:18:30;;;;;;;2.45;1.30;;;0.20;99.90;;;;;;4994186;28;20068;-73
2022/04/04 02:20:57;;;;;;;3.25;1.48;;;0.10;99.90;;;;;;4994531;28;20441;-72
2022/04/04 02:23:23;;;;;;;2.63;1.40;;;0.10;99.90;;;;;;4994173;28;20022;-73
2022/04/04 02:54:53;;;;;;;3.92;1.40;;;-0.60;99.90;;;;;;4993411;28;20046;-73
2022/04/04 02:57:19;;;;;;;4.15;1.42;;;-0.60;99.90;;;;;;4994966;28;20471;-74
2022/04/04 02:59:45;;;;;;;2.97;1.55;;;-0.60;99.90;;;;;;4993514;28;20441;-74
2022/04/04 03:02:11;;;;;;;1.55;1.25;;;-0.60;99.90;;;;;;4993625;28;20445;-73
2022/04/04 03:38:17;;;;;;;5.32;1.73;;;-0.80;99.90;;;;;;5210870;23;20111;-63
2022/04/04 03:40:44;;;;;;;1.75;1.30;;;-0.70;99.90;;;;;;4973148;28;20149;-64
2022/04/04 03:43:10;;;;;;;6.80;1.63;;;-0.70;99.90;;;;;;4973243;28;20027;-63
2022/04/04 03:45:36;;;;;;;5.70;1.83;;;-0.70;99.90;;;;;;4973698;28;20027;-63
2022/04/04 03:48:02;;;;;;;3.05;1.52;;;-0.80;99.90;;;;;;4967238;28;20478;-64
2022/04/04 03:50:29;;;;;;;2.25;1.30;;;-0.70;99.90;;;;;;4954099;29;20027;-64
2022/04/04 03:52:56;;;;;;;2.10;1.20;;;-0.70;99.90;;;;;;4954037;29;20511;-65
2022/04/04 03:55:25;;;;;;;5.78;1.88;;;-0.70;99.90;;;;;;4954068;29;20030;-64
2022/04/04 03:57:51;;;;;;;3.75;1.38;;;-0.80;99.90;;;;;;4953942;29;20107;-63
2022/04/04 04:00:18;;;;;;;1.52;0.98;;;-0.80;99.90;;;;;;4953721;29;20038;-64
2022/04/04 04:02:44;;;;;;;5.93;1.25;;;-0.80;99.90;;;;;;4954067;29;20090;-64
2022/04/04 04:05:10;;;;;;;3.08;1.05;;;-0.80;99.90;;;;;;4953717;29;20054;-63
2022/04/04 04:07:36;;;;;;;7.05;1.30;;;-0.80;99.90;;;;;;4953775;29;20055;-64
2022/04/04 04:10:02;;;;;;;3.22;1.40;;;-0.80;99.90;;;;;;4953700;29;20023;-64
2022/04/04 04:12:27;;;;;;;2.10;1.10;;;-0.80;99.90;;;;;;4954031;29;20086;-64
2022/04/04 04:14:54;;;;;;;2.65;1.15;;;-0.80;99.90;;;;;;4953992;29;20039;-64
2022/04/04 04:17:21;;;;;;;3.10;1.17;;;-0.80;99.90;;;;;;4953548;29;20098;-64
2022/04/04 04:22:31;;;;;;;2.72;1.10;;;-0.80;99.90;;;;;;4953668;29;20151;-65
2022/04/04 04:24:58;;;;;;;3.35;1.40;;;-0.80;99.90;;;;;;4953612;29;20493;-64
2022/04/04 04:27:24;;;;;;;1.40;0.98;;;-0.80;99.90;;;;;;4953453;28;20027;-63
2022/04/04 04:29:50;;;;;;;1.27;1.10;;;-0.80;99.90;;;;;;4957436;29;20027;-61
2022/04/04 04:32:16;;;;;;;2.22;1.15;;;-0.80;99.90;;;;;;4957447;29;20062;-63
2022/04/04 04:34:46;;;;;;;2.28;1.20;;;-0.70;99.90;;;;;;4957378;29;20023;-63
2022/04/04 04:37:13;;;;;;;1.02;0.93;;;-0.70;99.90;;;;;;4956966;28;20047;-62
2022/04/04 04:39:39;;;;;;;2.42;1.27;;;-0.40;99.90;;;;;;4957450;28;20031;-64
2022/04/04 04:42:05;;;;;;;2.08;0.90;;;-0.50;99.90;;;;;;4955379;28;20070;-66
2022/04/04 04:44:31;;;;;;;2.38;1.20;;;-0.60;99.90;;;;;;4956624;28;20027;-63
2022/04/04 04:46:57;;;;;;;1.27;1.10;;;-0.60;99.90;;;;;;4956354;28;20122;-65
2022/04/04 04:49:24;;;;;;;0.98;0.98;;;-0.70;99.90;;;;;;4966287;28;20023;-65
2022/04/04 04:51:49;;;;;;;2.03;0.88;;;-0.70;99.90;;;;;;4976006;28;20039;-64
2022/04/04 04:54:16;;;;;;;2.13;1.00;;;-0.60;99.90;;;;;;4973651;28;20035;-65
2022/04/04 04:56:43;;;;;;;1.00;0.90;;;-0.70;99.90;;;;;;4969592;28;20154;-64
2022/04/04 04:59:09;;;;;;;1.35;1.00;;;-0.70;99.90;;;;;;4972187;28;20030;-66
2022/04/04 05:01:35;;;;;;;1.73;1.05;;;-0.80;99.90;;;;;;4971199;28;20505;-65
2022/04/04 05:04:01;;;;;;;2.67;0.73;;;-0.80;99.90;;;;;;4974104;28;20030;-65
2022/04/04 05:06:27;;;;;;;2.45;0.90;;;-0.80;99.90;;;;;;4961199;28;20031;-65
2022/04/04 05:08:55;;;;;;;0.90;0.90;;;-0.90;99.90;;;;;;4962520;28;20611;-65
2022/04/04 05:11:21;;;;;;;1.10;0.80;;;-0.90;99.90;;;;;;4959639;28;20028;-65
2022/04/04 05:13:47;;;;;;;0.68;0.63;;;-0.90;99.90;;;;;;4956552;28;20035;-64
2022/04/04 05:16:14;;;;;;;1.40;0.90;;;-0.90;99.90;;;;;;4974398;28;20038;-64
2022/04/04 05:18:44;;;;;;;1.30;0.88;;;-0.90;99.90;;;;;;4976231;28;20053;-62
2022/04/04 05:21:11;;;;;;;1.08;1.05;;;-0.90;99.90;;;;;;4975959;28;20067;-62
2022/04/04 05:23:39;;;;;;;2.38;0.90;;;-0.80;99.90;;;;;;4975713;28;20031;-65
2022/04/04 05:26:05;;;;;;;2.53;0.95;;;-0.80;99.90;;;;;;4975638;28;20046;-66
2022/04/04 05:28:31;;;;;;;14.55;1.60;;;-0.70;99.90;;;;;;4975705;28;20098;-69
2022/04/04 05:30:58;;;;;;;1.35;1.00;;;-0.30;99.90;;;;;;4974486;28;20058;-66
2022/04/04 05:33:25;;;;;;;2.15;1.10;;;-0.10;99.90;;;;;;4975459;28;20042;-65
2022/04/04 05:35:52;;;;;;;2.50;1.20;;;-0.30;99.90;;;;;;4975653;28;20105;-65
2022/04/04 05:38:18;;;;;;;1.80;1.08;;;-0.50;99.90;;;;;;4973897;28;20047;-65
2022/04/04 05:40:44;;;;;;;7.30;1.10;;;-0.60;99.90;;;;;;4974655;28;20031;-65
2022/04/04 05:43:10;;;;;;;3.80;1.23;;;-0.70;99.90;;;;;;4975291;28;20023;-67
2022/04/04 05:45:36;;;;;;;1.80;0.93;;;-0.80;99.90;;;;;;4979788;28;20033;-70
2022/04/04 05:48:03;;;;;;;2.72;1.05;;;-0.90;99.90;;;;;;4972850;28;20038;-66
2022/04/04 05:50:29;;;;;;;2.72;1.23;;;-1.00;99.90;;;;;;4969552;28;20493;-66
2022/04/04 05:52:55;;;;;;;0.90;0.80;;;-1.10;99.90;;;;;;4964013;28;20031;-66
2022/04/04 05:55:20;;;;;;;4.38;1.35;;;-1.10;99.90;;;;;;4962367;28;20027;-66
2022/04/04 05:57:47;;;;;;;1.52;0.68;;;-1.00;99.90;;;;;;4970812;28;20038;-64
2022/04/04 06:00:13;;;;;;;1.50;0.90;;;-1.10;99.90;;;;;;4969784;28;20031;-64
2022/04/04 06:02:41;;;;;;;1.65;1.10;;;-1.10;99.90;;;;;;4973631;28;20034;-65
2022/04/04 06:05:11;;;;;;;1.92;1.00;;;-1.10;99.90;;;;;;4973724;28;20030;-68
2022/04/04 06:07:38;;;;;;;1.77;0.90;;;-1.20;99.90;;;;;;4974175;28;20037;-68
2022/04/04 06:10:06;;;;;;;1.83;0.90;;;-1.30;99.90;;;;;;4963137;28;20273;-66
2022/04/04 06:12:34;;;;;;;6.45;0.90;;;-1.30;99.90;;;;;;4974560;28;20219;-66
2022/04/04 06:15:00;;;;;;;2.22;0.90;;;-1.40;99.90;;;;;;4974003;28;20026;-66
2022/04/04 06:17:26;;;;;;;1.08;0.90;;;-1.40;99.90;;;;;;4961224;28;20019;-66
2022/04/04 06:19:52;;;;;;;1.75;0.93;;;-1.40;99.90;;;;;;4953727;29;20023;-66
2022/04/04 06:22:18;;;;;;;5.38;1.02;;;-1.40;99.90;;;;;;4954774;29;20491;-66
2022/04/04 06:24:43;;;;;;;5.53;0.90;;;-1.50;99.90;;;;;;4961896;28;20071;-66
2022/04/04 06:27:09;;;;;;;0.82;0.80;;;-1.60;99.90;;;;;;4963274;28;20031;-66
2022/04/04 06:29:35;;;;;;;3.80;1.25;;;-1.60;99.90;;;;;;4954687;28;20027;-66
2022/04/04 06:32:03;;;;;;;0.85;0.77;;;-1.60;99.90;;;;;;4972045;28;20030;-66
2022/04/04 06:34:29;;;;;;;1.92;1.00;;;-1.50;99.90;;;;;;4968695;28;20023;-66
2022/04/04 06:36:55;;;;;;;4.32;0.90;;;-1.60;99.90;;;;;;4963249;28;20046;-66
2022/04/04 06:39:21;;;;;;;3.63;1.60;;;-1.60;99.90;;;;;;4961857;28;20023;-67
2022/04/04 06:41:46;;;;;;;2.30;1.10;;;-1.60;99.90;;;;;;4969987;28;20042;-67
2022/04/04 06:44:13;;;;;;;1.75;0.82;;;-1.70;99.90;;;;;;4973372;28;20029;-67
2022/04/04 06:46:38;;;;;;;1.55;1.10;;;-1.70;99.90;;;;;;4973319;28;20127;-66
2022/04/04 06:49:05;;;;;;;1.42;0.90;;;-1.80;99.90;;;;;;4968981;28;20038;-66
2022/04/04 06:51:32;;;;;;;4.03;1.17;;;-1.80;99.90;;;;;;4973233;28;20121;-67
2022/04/04 06:53:59;;;;;;;2.78;1.27;;;-1.70;99.90;;;;;;4972916;28;20030;-68
2022/04/04 06:56:24;;;;;;;2.58;0.90;;;-1.70;99.90;;;;;;4971618;28;20041;-69
2022/04/04 06:58:52;;;;;;;1.05;0.70;;;-1.70;99.90;;;;;;4971964;28;20045;-68
2022/04/04 07:01:18;;;;;;;3.80;1.08;;;-1.70;99.90;;;;;;4968437;28;20065;-69
2022/04/04 07:03:44;;;;;;;2.67;0.93;;;-1.70;99.90;;;;;;4972033;28;20031;-69
2022/04/04 07:06:10;;;;;;;1.20;0.75;;;-1.70;99.90;;;;;;4964849;28;20086;-69
2022/04/04 07:08:36;;;;;;;2.78;1.13;;;-1.70;99.90;;;;;;4966605;28;20027;-64
2022/04/04 07:11:03;;;;;;;2.13;1.13;;;-1.70;99.90;;;;;;4954411;29;20034;-64
2022/04/04 07:13:31;;;;;;;3.13;1.17;;;-1.50;99.90;;;;;;4954757;28;20035;-64
2022/04/04 07:15:57;;;;;;;2.38;0.95;;;-1.40;99.90;;;;;;4954569;28;20106;-64
2022/04/04 07:18:23;;;;;;;1.40;0.80;;;-1.00;99.90;;;;;;4954441;28;20046;-64
2022/04/04 07:20:49;;;;;;;1.45;0.98;;;-0.80;99.90;;;;;;4973362;28;20034;-65
2022/04/04 07:23:14;;;;;;;1.48;0.88;;;-1.00;99.90;;;;;;4973464;28;20031;-71
2022/04/04 07:25:40;;;;;;;4.38;1.30;;;-1.10;99.90;;;;;;4973069;28;20031;-69
2022/04/04 07:28:08;;;;;;;3.72;1.10;;;-1.30;99.90;;;;;;4973470;28;20083;-68
2022/04/04 07:30:34;;;;;;;1.00;0.95;;;-1.40;99.90;;;;;;4973819;28;20031;-70
2022/04/04 07:33:03;;;;;;;1.98;1.23;;;-1.40;99.90;;;;;;4973331;28;20030;-70
2022/04/04 07:35:29;;;;;;;1.25;0.90;;;-1.40;99.90;;;;;;4970906;28;20394;-69
2022/04/04 07:37:55;;;;;;;3.10;1.20;;;-1.40;99.90;;;;;;4972458;28;20038;-69
2022/04/04 07:40:21;;;;;;;2.38;1.10;;;-1.30;99.90;;;;;;4973123;28;20038;-69
2022/04/04 07:42:48;;;;;;;4.43;1.10;;;-1.30;99.90;;;;;;4965567;28;20049;-69
2022/04/04 07:45:15;;;;;;;1.35;1.02;;;-1.40;99.90;;;;;;4969960;28;20038;-69
2022/04/04 07:47:42;;;;;;;1.80;0.88;;;-1.40;99.90;;;;;;4972643;28;20022;-67
2022/04/04 07:50:10;;;;;;;2.20;1.00;;;-1.50;99.90;;;;;;4972829;28;20086;-67
2022/04/04 07:52:36;;;;;;;1.70;1.10;;;-1.60;99.90;;;;;;4973583;28;20022;-68
2022/04/04 07:55:03;;;;;;;2.92;1.35;;;-1.60;99.90;;;;;;4973170;28;20474;-69
2022/04/04 07:57:29;;;;;;;1.73;1.20;;;-1.60;99.90;;;;;;4972334;28;20023;-69
2022/04/04 07:59:54;;;;;;;3.42;1.10;;;-1.60;99.90;;;;;;4971967;28;20035;-69
2022/04/04 08:02:20;;;;;;;1.27;0.88;;;-1.60;99.90;;;;;;4972563;28;20046;-69
2022/04/04 08:04:46;;;;;;;3.00;1.10;;;-1.60;99.90;;;;;;4973302;28;20034;-67
2022/04/04 08:07:13;;;;;;;2.65;1.00;;;-1.60;99.90;;;;;;4972934;28;20106;-71
2022/04/04 08:09:39;;;;;;;3.72;1.10;;;-1.40;99.90;;;;;;4973063;28;20023;-68
2022/04/04 08:12:05;;;;;;;5.18;1.40;;;0.10;99.90;;;;;;4972692;28;20549;-68
2022/04/04 08:14:31;;;;;;;1.70;0.90;;;0.00;99.90;;;;;;4973064;28;20110;-68
2022/04/04 08:16:57;;;;;;;1.80;1.02;;;-0.60;99.90;;;;;;4973289;28;20027;-68
2022/04/04 08:19:23;;;;;;;3.47;1.20;;;-1.00;99.90;;;;;;4972922;28;20061;-69
2022/04/04 08:21:49;;;;;;;3.05;1.08;;;-1.20;99.90;;;;;;4972833;28;20419;-68
2022/04/04 08:24:15;;;;;;;3.65;1.40;;;-1.30;99.90;;;;;;4972614;28;20038;-68
2022/04/04 08:26:42;;;;;;;2.83;1.08;;;-1.40;99.90;;;;;;4972892;28;20023;-68
2022/04/04 08:29:11;;;;;;;2.97;1.27;;;-1.50;99.90;;;;;;4971481;28;20018;-68
2022/04/04 08:31:38;;;;;;;1.77;1.00;;;-1.50;99.90;;;;;;4972984;28;20554;-68
2022/04/04 08:34:04;;;;;;;3.95;1.25;;;-1.40;99.90;;;;;;4972863;28;20031;-68
2022/04/04 08:36:30;;;;;;;2.50;0.90;;;-1.40;99.90;;;;;;4972480;28;20027;-69
2022/04/04 08:38:56;;;;;;;2.88;1.45;;;-1.40;99.90;;;;;;4972776;28;20129;-69
2022/04/04 08:41:22;;;;;;;3.35;1.00;;;-1.40;99.90;;;;;;4972544;28;20118;-68
2022/04/04 08:43:51;;;;;;;2.97;1.30;;;-1.50;99.90;;;;;;4972696;28;20035;-68
2022/04/04 08:46:18;;;;;;;1.65;0.90;;;-1.60;99.90;;;;;;4972583;28;20027;-68
2022/04/04 08:48:44;;;;;;;3.35;1.17;;;-1.70;99.90;;;;;;4972634;28;20090;-68
2022/04/04 08:51:10;;;;;;;4.35;1.10;;;-1.10;99.90;;;;;;4972590;28;20061;-68
2022/04/04 08:53:38;;;;;;;3.60;1.52;;;0.30;99.90;;;;;;4970812;28;20058;-68
2022/04/04 08:56:06;;;;;;;5.72;1.55;;;-0.20;99.90;;;;;;4972604;28;20094;-68
2022/04/04 08:58:33;;;;;;;1.85;1.10;;;-0.70;99.90;;;;;;4972323;28;20023;-68
2022/04/04 09:00:59;;;;;;;3.90;1.50;;;-0.20;99.90;;;;;;4972570;28;20509;-68
2022/04/04 09:03:29;;;;;;;2.20;1.10;;;-0.40;99.90;;;;;;4972370;28;20053;-68
2022/04/04 09:06:03;;;;;;;4.38;1.30;;;-0.90;99.90;;;;;;4972223;28;20027;-69
2022/04/04 09:08:41;;;;;;;3.60;1.17;;;-1.20;99.90;;;;;;4972363;28;20027;-68
2022/04/04 09:11:07;;;;;;;3.97;1.30;;;-1.30;99.90;;;;;;4972392;28;20117;-67
2022/04/04 09:13:34;;;;;;;3.25;1.30;;;-1.40;99.90;;;;;;4972343;28;20114;-68
2022/04/04 09:16:04;;;;;;;1.42;0.95;;;-1.50;99.90;;;;;;4974097;28;20106;-68
2022/04/04 09:18:42;;;;;;;4.88;1.42;;;-1.60;99.90;;;;;;4975992;28;20467;-70
2022/04/04 09:21:13;;;;;;;2.25;1.33;;;-1.60;99.90;;;;;;4976088;28;20034;-70
2022/04/04 09:23:50;;;;;;;2.28;1.40;;;-1.70;99.90;;;;;;4975613;28;20030;-70
2022/04/04 09:26:40;;;;;;;2.63;1.30;;;-1.80;99.90;;;;;;4974386;28;20479;-70
2022/04/04 09:29:07;;;;;;;6.22;1.30;;;-1.80;99.90;;;;;;4975958;28;20110;-70
2022/04/04 09:31:33;;;;;;;3.63;1.40;;;-1.80;99.90;;;;;;4975336;28;20486;-70
2022/04/04 09:34:02;;;;;;;3.80;1.30;;;-1.80;99.90;;;;;;4975591;28;20035;-70
2022/04/04 09:36:28;;;;;;;3.15;1.60;;;-1.90;99.90;;;;;;4974802;28;20105;-70
2022/04/04 09:39:10;;;;;;;6.07;1.85;;;-1.90;99.90;;;;;;4936930;29;20047;-68
2022/04/04 09:41:37;;;;;;;2.55;1.40;;;-2.00;99.90;;;;;;4937194;29;20106;-69
2022/04/04 09:44:05;;;;;;;4.05;1.30;;;-1.60;99.90;;;;;;4936920;29;20073;-68
2022/04/04 09:46:49;;;;;;;3.88;1.27;;;-1.60;99.90;;;;;;4931803;29;20062;-66
2022/04/04 09:49:20;;;;;;;4.68;1.70;;;-1.70;99.90;;;;;;4917759;29;20028;-66
2022/04/04 09:51:54;;;;;;;1.20;1.02;;;-1.80;99.90;;;;;;4936547;29;20705;-66
2022/04/04 09:54:23;;;;;;;1.48;1.20;;;-1.90;99.90;;;;;;4936731;29;20020;-66
2022/04/04 09:56:53;;;;;;;3.25;1.30;;;-2.00;99.90;;;;;;4936881;29;20094;-67
2022/04/04 09:59:19;;;;;;;;;;;-2.00;99.90;;;;;;4937151;29;20106;-69
2022/04/04 10:01:46;;;;;;;1.58;1.00;;;-2.00;99.90;;;;;;4933347;29;20367;-69
2022/04/04 10:04:13;;;;;;;5.05;1.33;;;-2.00;99.90;;;;;;4929722;29;20650;-69
2022/04/04 10:06:41;;;;;;;24.48;2.38;;;-2.20;99.90;;;;;;4933524;29;20038;-69
2022/04/04 10:09:07;;;;;;;3.83;1.17;;;-2.20;99.90;;;;;;4933613;29;20031;-67
2022/04/04 10:11:36;;;;;;;1.85;1.23;;;-2.20;99.90;;;;;;4936085;29;20023;-68
2022/04/04 10:14:02;;;;;;;4.93;1.48;;;-2.20;99.90;;;;;;4930970;29;20042;-68
2022/04/04 10:16:30;;;;;;;1.30;1.20;;;-2.20;99.90;;;;;;4924865;29;20038;-68
2022/04/04 10:18:57;;;;;;;3.20;1.10;;;-2.20;99.90;;;;;;4917042;29;20052;-68
2022/04/04 10:21:25;;;;;;;2.05;1.30;;;-2.30;99.90;;;;;;4933779;29;20048;-68
2022/04/04 10:23:57;;;;;;;2.60;1.40;;;-2.30;99.90;;;;;;4936348;29;20023;-68
2022/04/04 10:26:30;;;;;;;4.30;1.58;;;-2.30;99.90;;;;;;4935842;29;20027;-68
2022/04/04 10:29:10;;;;;;;5.45;1.38;;;-2.30;99.90;;;;;;4936550;29;20039;-68
2022/04/04 10:32:03;;;;;;;3.35;1.60;;;-2.20;99.90;;;;;;4936289;29;20479;-69
2022/04/04 10:34:29;;;;;;;2.42;0.98;;;-2.30;99.90;;;;;;4934560;29;20106;-69
2022/04/04 10:37:07;;;;;;;3.13;1.45;;;-2.30;99.90;;;;;;4943239;28;20486;-69
2022/04/04 10:39:44;;;;;;;4.28;1.40;;;-2.30;99.90;;;;;;4974316;28;20034;-69
2022/04/04 10:42:26;;;;;;;2.97;1.50;;;-2.20;99.90;;;;;;4973377;28;20030;-69
2022/04/04 10:45:02;;;;;;;4.55;1.38;;;-2.20;99.90;;;;;;4974462;28;20030;-68
2022/04/04 10:47:29;;;;;;;3.22;1.40;;;-2.10;99.90;;;;;;4974631;28;20027;-69
2022/04/04 10:50:21;;;;;;;4.15;1.67;;;-2.00;99.90;;;;;;4974346;28;20065;-68
2022/04/04 10:52:48;;;;;;;2.72;1.23;;;-1.90;99.90;;;;;;4974141;28;20061;-68
2022/04/04 10:55:43;;;;;;;3.10;1.50;;;-1.90;99.90;;;;;;4974058;28;20031;-69
2022/04/04 10:58:19;;;;;;;4.57;1.83;;;-1.90;99.90;;;;;;4973819;28;20022;-68
2022/04/04 11:01:04;;;;;;;3.97;2.00;;;-1.90;99.90;;;;;;4972119;28;20066;-68
2022/04/04 11:03:30;;;;;;;3.70;1.77;;;-1.80;99.90;;;;;;4974171;28;20053;-67
2022/04/04 11:09:22;;;;;;;5.45;2.25;;;-1.90;99.90;;;;;;4972551;28;20077;-69
2022/04/04 11:11:55;;;;;;;4.45;1.42;;;-1.80;99.90;;;;;;4973492;28;20065;-68
2022/04/04 11:14:27;;;;;;;3.45;1.90;;;-1.90;99.90;;;;;;4971430;28;20022;-68
2022/04/04 11:20:33;;;;;;;3.17;1.85;;;-2.00;99.90;;;;;;4973493;28;20045;-69
2022/04/04 11:23:08;;;;;;;3.95;1.80;;;-2.00;99.90;;;;;;4914061;29;20040;-69
2022/04/04 11:25:37;;;;;;;3.83;1.38;;;-2.10;99.90;;;;;;4963112;28;20498;-69
2022/04/04 11:28:06;;;;;;;2.13;1.40;;;-2.10;99.90;;;;;;4973960;28;20038;-69
2022/04/04 11:30:32;;;;;;;5.63;2.03;;;-2.10;99.90;;;;;;4973379;28;20026;-69
2022/04/04 11:32:59;;;;;;;3.45;1.70;;;-2.10;99.90;;;;;;4973611;28;20058;-69
2022/04/04 11:35:30;;;;;;;1.90;1.40;;;-2.10;99.90;;;;;;4973368;28;20038;-69
2022/04/04 11:38:00;;;;;;;;;;;-2.20;99.90;;;;;;4973163;28;20058;-67
2022/04/04 11:40:32;;;;;;;1.42;1.15;;;-2.10;99.90;;;;;;4973319;28;19912;-66
2022/04/04 11:42:58;;;;;;;4.05;1.33;;;-2.10;99.90;;;;;;4972143;28;20038;-66
2022/04/04 11:45:26;;;;;;;1.92;1.52;;;-2.20;99.90;;;;;;4973355;28;20031;-65
2022/04/04 11:48:03;;;;;;;3.20;1.58;;;-2.20;99.90;;;;;;4973321;28;20554;-66
2022/04/04 11:50:32;;;;;;;6.05;1.73;;;-2.20;99.90;;;;;;4972953;28;20026;-66
2022/04/04 11:53:02;;;;;;;3.60;1.30;;;-2.20;99.90;;;;;;4973259;28;20116;-66
2022/04/04 11:55:29;;;;;;;;;;;-2.10;99.90;;;;;;4973398;28;20019;-65
2022/04/04 11:57:57;;;;;;;6.20;1.60;;;-2.10;99.90;;;;;;4973218;28;20332;-67
2022/04/04 12:00:33;;;;;;;4.03;1.73;;;-2.10;99.90;;;;;;4973118;28;20105;-68
2022/04/04 12:03:03;;;;;;;1.95;1.45;;;-2.00;99.90;;;;;;4972967;28;20038;-68
2022/04/04 12:05:31;;;;;;;1.73;1.43;;;-1.90;99.90;;;;;;4972751;28;20023;-68
2022/04/04 12:07:58;;;;;;;2.60;1.38;;;-1.90;99.90;;;;;;4972982;28;20418;-68
2022/04/04 12:10:25;;;;;;;3.97;1.77;;;-1.90;99.90;;;;;;4973007;28;20039;-68
2022/04/04 12:13:21;;;;;;;3.17;1.77;;;-1.90;99.90;;;;;;4972946;28;20478;-66
2022/04/04 12:15:50;;;;;;;7.05;1.85;;;-1.60;99.90;;;;;;4960454;28;20061;-69
2022/04/04 12:18:27;;;;;;;7.72;1.92;;;-0.90;99.90;;;;;;4972934;28;20023;-69
2022/04/04 12:21:01;;;;;;;6.90;1.70;;;-1.10;99.90;;;;;;4953573;28;20094;-68
2022/04/04 12:26:15;;;;;;;1.67;1.45;;;-1.70;99.90;;;;;;4953597;28;20034;-68
2022/04/04 12:28:52;;;;;;;6.45;1.98;;;-1.70;99.90;;;;;;4952944;28;20033;-68
2022/04/04 12:31:19;;;;;;;6.88;2.30;;;-1.80;99.90;;;;;;4963456;28;20030;-68
2022/04/04 12:33:51;;;;;;;2.80;1.58;;;-1.80;99.90;;;;;;4971906;28;20023;-65
2022/04/04 12:36:40;;;;;;;3.92;2.15;;;-1.80;99.90;;;;;;4972244;28;20498;-68
2022/04/04 12:39:19;;;;;;;4.95;2.13;;;-1.90;99.90;;;;;;4972808;28;20082;-67
2022/04/04 12:41:50;;;;;;;2.67;1.80;;;-1.90;99.90;;;;;;4972847;28;20038;-67
2022/04/04 12:44:27;;;;;;;3.95;2.10;;;-2.00;99.90;;;;;;4972761;28;20558;-67
2022/04/04 12:47:06;;;;;;;4.47;1.85;;;-2.00;99.90;;;;;;4972870;28;20046;-67
2022/04/04 12:49:31;;;;;;;3.55;1.90;;;-1.90;99.90;;;;;;4974289;28;20023;-67
2022/04/04 12:52:06;;;;;;;4.18;1.88;;;-1.90;99.90;;;;;;4975374;28;20031;-67
2022/04/04 12:54:40;;;;;;;1.67;1.40;;;-1.90;99.90;;;;;;4976235;28;20046;-67
2022/04/04 12:57:09;;;;;;;5.88;2.15;;;-1.80;99.90;;;;;;4972802;28;20361;-66
2022/04/04 12:59:54;;;;;;;6.15;1.92;;;-1.30;99.90;;;;;;4974787;28;20467;-66
2022/04/04 13:02:28;;;;;;;3.95;1.52;;;-1.50;99.90;;;;;;4976254;28;20042;-66
2022/04/04 13:05:11;;;;;;;1.52;1.40;;;-1.60;99.90;;;;;;4975927;28;20030;-67
2022/04/04 13:07:53;;;;;;;2.78;1.75;;;-1.50;99.90;;;;;;4976091;28;20037;-67
2022/04/04 13:10:20;;;;;;;2.63;1.90;;;-1.70;99.90;;;;;;4976185;28;20029;-67
2022/04/04 13:12:46;;;;;;;2.38;1.70;;;-1.80;99.90;;;;;;4976165;28;20023;-67
2022/04/04 13:15:12;;;;;;;3.10;1.83;;;-1.80;99.90;;;;;;4975698;28;20030;-67
2022/04/04 13:17:43;;;;;;;3.10;1.80;;;-1.80;99.90;;;;;;4976000;28;20054;-67
2022/04/04 13:20:12;;;;;;;2.42;1.83;;;-1.90;99.90;;;;;;4968880;28;20066;-68
2022/04/04 13:22:42;;;;;;;3.47;2.15;;;-1.90;99.90;;;;;;4967487;28;20402;-67
2022/04/04 13:25:10;;;;;;;1.63;1.42;;;-2.00;99.90;;;;;;4963189;28;20026;-66
2022/04/04 13:27:39;;;;;;;4.50;1.25;;;-2.00;99.90;;;;;;4964545;28;20065;-68
2022/04/04 13:30:06;;;;;;;2.20;1.83;;;-2.00;99.90;;;;;;4972208;28;20019;-68
2022/04/04 13:32:32;;;;;;;4.00;1.65;;;-1.90;99.90;;;;;;4967070;28;20030;-68
2022/04/04 13:34:58;;;;;;;1.73;1.30;;;-1.90;99.90;;;;;;4955974;28;20033;-67
2022/04/04 13:37:23;;;;;;;4.38;1.75;;;-2.00;99.90;;;;;;4955523;28;20050;-67
2022/04/04 13:39:49;;;;;;;6.07;1.90;;;-2.00;99.90;;;;;;4955966;28;20031;-67
2022/04/04 13:42:15;;;;;;;1.88;1.48;;;-2.00;99.90;;;;;;4958940;28;20053;-68
2022/04/04 13:44:42;;;;;;;4.25;1.38;;;-1.90;99.90;;;;;;4959855;28;20106;-68
2022/04/04 13:47:08;;;;;;;2.85;1.90;;;-2.00;99.90;;;;;;4958278;28;20372;-67
2022/04/04 13:49:34;;;;;;;2.65;1.50;;;-2.00;99.90;;;;;;4956265;28;20082;-67
2022/04/04 13:52:01;;;;;;;3.28;1.50;;;-2.00;99.90;;;;;;4958064;28;20082;-67
2022/04/04 13:54:28;;;;;;;1.52;1.42;;;-2.00;99.90;;;;;;4956396;28;20019;-68
2022/04/04 13:56:53;;;;;;;2.50;1.45;;;-2.00;99.90;;;;;;4961964;28;20030;-68
2022/04/04 13:59:19;;;;;;;2.90;1.80;;;-1.90;99.90;;;;;;4955334;28;20089;-69
2022/04/04 14:01:45;;;;;;;2.20;1.30;;;-2.00;99.90;;;;;;4954631;28;20348;-68
2022/04/04 14:04:11;;;;;;;3.95;1.50;;;-2.00;99.90;;;;;;4957848;28;20368;-68
2022/04/04 14:06:36;;;;;;;4.43;1.48;;;-2.00;99.90;;;;;;4955072;28;20031;-68
2022/04/04 14:09:02;;;;;;;1.98;1.42;;;-2.00;99.90;;;;;;4958106;28;20028;-68
2022/04/04 14:11:29;;;;;;;1.27;1.17;;;-2.00;99.90;;;;;;4957827;28;20019;-67